Time;durP1;ratioP1;P1;durP2;ratioP2;P2;SDS_P1;SDS_P2;PMS_P1;PMS_P2;Temp;Humidity;BMP_temperature;BMP_pressure;BME280_temperature;BME280_humidity;BME280_pressure;Samples;Min_cycle;Max_cycle;Signal;HPM_P1;HPM_P2
2022/02/03 00:00:23;;;;;;;20.57;13.90;;;8.20;99.90;;;;;;5080872;28;21004;-41
2022/02/03 00:03:09;;;;;;;21.33;14.77;;;8.40;99.90;;;;;;5081830;28;20463;-41
2022/02/03 00:05:49;;;;;;;21.47;14.10;;;8.30;99.90;;;;;;5086569;28;20925;-43
2022/02/03 00:25:05;;;;;;;23.70;15.17;;;8.60;99.90;;;;;;5093819;28;20422;-42
2022/02/03 00:27:51;;;;;;;28.50;16.30;;;8.70;99.90;;;;;;5093873;28;20442;-41
2022/02/03 00:30:19;;;;;;;28.83;16.47;;;8.50;99.90;;;;;;5088137;28;20513;-41
2022/02/03 00:35:38;;;;;;;31.43;17.47;;;8.50;99.90;;;;;;5093950;28;20834;-40
2022/02/03 00:38:27;;;;;;;28.73;17.00;;;8.50;99.90;;;;;;5093903;28;20430;-43
2022/02/03 00:49:14;;;;;;;33.80;18.93;;;8.50;99.90;;;;;;5092498;28;20502;-41
2022/02/03 00:51:44;;;;;;;33.47;18.83;;;8.60;99.90;;;;;;5079212;28;20422;-41
2022/02/03 00:54:11;;;;;;;35.80;20.77;;;8.60;99.90;;;;;;5094032;28;20428;-41
2022/02/03 00:56:40;;;;;;;35.27;19.03;;;8.60;99.90;;;;;;5093736;28;20445;-40
2022/02/03 00:59:09;;;;;;;34.93;19.97;;;8.60;99.90;;;;;;5094062;28;20561;-41
2022/02/03 01:01:38;;;;;;;36.60;19.90;;;8.60;99.90;;;;;;5083188;28;20461;-41
2022/02/03 01:04:08;;;;;;;37.17;20.60;;;8.80;99.90;;;;;;5093643;28;20433;-40
2022/02/03 01:06:38;;;;;;;34.13;19.90;;;8.60;99.90;;;;;;5093296;28;20786;-41
2022/02/03 01:09:07;;;;;;;37.73;20.37;;;8.70;99.90;;;;;;5081261;28;20496;-42
2022/02/03 01:11:41;;;;;;;35.20;19.17;;;8.70;99.90;;;;;;5091646;28;20459;-42
2022/02/03 01:14:15;;;;;;;34.70;19.43;;;8.60;99.90;;;;;;5093990;28;20521;-40
2022/02/03 01:51:38;;;;;;;32.30;18.70;;;8.70;99.90;;;;;;5083111;28;20473;-42
2022/02/03 01:52:32;;;;;;;29.63;17.80;;;8.70;99.90;;;;;;5081020;28;20488;-40
2022/02/03 01:54:58;;;;;;;29.80;19.33;;;8.80;99.90;;;;;;5089977;28;20458;-40
2022/02/03 01:58:01;;;;;;;26.77;17.70;;;8.80;99.90;;;;;;5089611;28;20468;-40
2022/02/03 02:00:27;;;;;;;27.67;18.00;;;8.80;99.90;;;;;;5065635;28;20948;-43
2022/02/03 02:03:10;;;;;;;27.47;17.73;;;9.10;99.90;;;;;;5077228;28;20999;-40
2022/02/03 02:05:36;;;;;;;29.30;18.90;;;8.90;99.90;;;;;;5089732;28;20452;-40
2022/02/03 02:08:08;;;;;;;31.80;19.47;;;9.00;99.90;;;;;;5089483;28;20460;-40
2022/02/03 02:19:15;;;;;;;29.17;19.73;;;8.70;99.90;;;;;;5086835;28;20505;-40
2022/02/03 02:39:01;;;;;;;31.07;19.77;;;8.80;99.90;;;;;;5088960;28;20426;-41
2022/02/03 02:44:22;;;;;;;34.43;21.47;;;8.90;99.90;;;;;;5089393;28;20493;-43
2022/02/03 02:46:52;;;;;;;32.43;19.87;;;8.80;99.90;;;;;;5080956;28;20434;-41
2022/02/03 02:49:24;;;;;;;31.93;20.80;;;9.10;99.90;;;;;;5085355;28;20557;-41
2022/02/03 02:51:58;;;;;;;27.90;18.70;;;8.90;99.90;;;;;;5082953;28;20422;-40
2022/02/03 03:38:25;;;;;;;28.57;16.90;;;8.90;99.90;;;;;;5086580;28;20959;-41
2022/02/03 03:40:54;;;;;;;28.50;17.30;;;9.00;99.90;;;;;;5087008;28;20424;-41
2022/02/03 03:43:40;;;;;;;29.10;18.47;;;9.00;99.90;;;;;;5086169;28;20908;-40
2022/02/03 03:46:50;;;;;;;28.17;17.60;;;8.90;99.90;;;;;;5086550;28;20760;-41
2022/02/03 03:49:42;;;;;;;26.77;17.40;;;8.80;99.90;;;;;;5017839;28;20468;-40
2022/02/03 03:52:15;;;;;;;26.40;16.40;;;8.70;99.90;;;;;;5080732;28;20465;-40
2022/02/03 03:54:54;;;;;;;34.53;20.20;;;8.70;99.90;;;;;;5087430;28;20932;-41
2022/02/03 04:36:41;;;;;;;35.13;20.07;;;8.70;99.90;;;;;;5086818;28;20448;-40
2022/02/03 04:45:34;;;;;;;28.87;18.80;;;8.80;99.90;;;;;;5087779;28;21049;-40
2022/02/03 04:51:34;;;;;;;23.87;16.40;;;8.70;99.90;;;;;;5083191;28;20819;-40
2022/02/03 05:03:07;;;;;;;25.73;16.30;;;8.60;99.90;;;;;;5084790;28;20434;-44
2022/02/03 05:06:04;;;;;;;22.03;15.70;;;8.50;99.90;;;;;;5089540;28;20430;-42
2022/02/03 05:11:51;;;;;;;25.80;14.60;;;8.50;99.90;;;;;;5089712;28;20819;-42
2022/02/03 05:44:29;;;;;;;17.43;10.70;;;8.60;99.90;;;;;;5089465;28;20422;-41
2022/02/03 06:05:44;;;;;;;13.50;9.53;;;8.40;99.90;;;;;;5087150;28;20422;-41
2022/02/03 06:08:24;;;;;;;13.83;9.30;;;8.10;99.90;;;;;;5085957;28;20548;-41
2022/02/03 06:14:02;;;;;;;12.80;8.83;;;8.00;99.90;;;;;;5089379;28;20501;-41
2022/02/03 06:24:06;;;;;;;14.47;9.67;;;8.00;99.90;;;;;;5089303;28;20944;-41
2022/02/03 06:29:21;;;;;;;14.77;9.67;;;8.20;99.90;;;;;;5089069;28;20541;-43
2022/02/03 06:31:50;;;;;;;13.33;8.63;;;8.00;99.90;;;;;;5088059;28;21310;-43
2022/02/03 06:34:16;;;;;;;12.90;9.23;;;8.10;99.90;;;;;;5079732;28;20435;-42
2022/02/03 06:36:42;;;;;;;12.50;9.03;;;8.20;99.90;;;;;;5088343;28;20414;-40
2022/02/03 06:39:20;;;;;;;11.63;8.30;;;8.00;99.90;;;;;;5088940;28;20418;-43
2022/02/03 06:41:50;;;;;;;11.93;7.90;;;8.10;99.90;;;;;;5082428;28;20871;-41
2022/02/03 06:44:18;;;;;;;11.73;8.70;;;8.00;99.90;;;;;;5088508;28;20433;-42
2022/02/03 06:46:48;;;;;;;12.63;8.57;;;8.00;99.90;;;;;;5087926;28;20486;-41
2022/02/03 06:49:24;;;;;;;12.07;8.63;;;8.00;99.90;;;;;;5072362;28;20507;-42
2022/02/03 06:51:59;;;;;;;12.30;9.23;;;8.10;99.90;;;;;;5081597;28;20519;-40
2022/02/03 06:54:50;;;;;;;11.43;8.50;;;8.00;99.90;;;;;;5088587;28;20933;-41
2022/02/03 06:57:23;;;;;;;11.73;9.17;;;8.00;99.90;;;;;;5084729;28;20446;-41
2022/02/03 07:00:00;;;;;;;11.40;8.43;;;8.10;99.90;;;;;;5080500;28;20446;-41
2022/02/03 07:02:29;;;;;;;14.03;9.07;;;8.10;99.90;;;;;;5086045;28;20437;-42
2022/02/03 07:04:56;;;;;;;12.27;8.73;;;8.00;99.90;;;;;;5084528;28;20426;-40
2022/02/03 07:07:22;;;;;;;11.97;9.23;;;8.00;99.90;;;;;;5088446;28;20765;-41
2022/02/03 07:09:50;;;;;;;11.07;8.47;;;8.10;99.90;;;;;;5088081;28;20480;-41
2022/02/03 07:12:17;;;;;;;13.73;9.70;;;8.00;99.90;;;;;;5082936;28;20196;-43
2022/02/03 07:14:42;;;;;;;12.77;9.03;;;8.00;99.90;;;;;;5081287;28;20446;-43
2022/02/03 07:17:08;;;;;;;12.50;9.00;;;7.80;99.90;;;;;;5088079;28;20422;-43
2022/02/03 07:19:43;;;;;;;13.90;9.50;;;7.90;99.90;;;;;;5076239;28;20425;-40
2022/02/03 07:22:09;;;;;;;13.00;9.90;;;8.20;99.90;;;;;;5083873;28;20188;-42
2022/02/03 07:24:35;;;;;;;13.87;8.90;;;8.10;99.90;;;;;;5088264;28;20459;-40
2022/02/03 07:27:00;;;;;;;14.77;9.00;;;8.00;99.90;;;;;;5087827;28;20256;-41
2022/02/03 07:29:26;;;;;;;14.70;9.43;;;8.00;99.90;;;;;;5086559;28;20235;-40
2022/02/03 07:31:52;;;;;;;14.03;9.37;;;8.00;99.90;;;;;;5084245;28;20581;-42
2022/02/03 07:34:18;;;;;;;13.40;9.07;;;8.00;99.90;;;;;;5085967;28;20215;-40
2022/02/03 07:36:46;;;;;;;15.30;9.87;;;8.20;99.90;;;;;;5085829;28;20230;-41
2022/02/03 07:39:12;;;;;;;13.43;8.90;;;7.90;99.90;;;;;;5085540;28;20496;-41
2022/02/03 07:41:38;;;;;;;12.37;8.67;;;8.00;99.90;;;;;;5085355;28;20687;-40
2022/02/03 07:44:04;;;;;;;13.90;9.60;;;8.20;99.90;;;;;;5086176;28;20429;-44
2022/02/03 07:46:31;;;;;;;11.87;8.60;;;8.20;99.90;;;;;;5085957;28;20557;-41
2022/02/03 07:48:57;;;;;;;12.80;8.40;;;8.20;99.90;;;;;;5080096;28;20470;-43
2022/02/03 07:51:23;;;;;;;12.53;8.80;;;8.10;99.90;;;;;;5086745;28;20479;-41
2022/02/03 07:53:49;;;;;;;13.40;9.40;;;8.20;99.90;;;;;;5087517;28;20775;-42
2022/02/03 07:56:14;;;;;;;12.80;10.40;;;8.00;99.90;;;;;;5087449;28;20487;-42
2022/02/03 07:58:40;;;;;;;14.27;10.40;;;8.10;99.90;;;;;;5087198;28;20194;-40
2022/02/03 08:01:06;;;;;;;13.17;9.93;;;8.10;99.90;;;;;;5086716;28;20176;-40
2022/02/03 08:03:32;;;;;;;14.20;10.40;;;8.10;99.90;;;;;;5079535;28;20532;-41
2022/02/03 08:06:03;;;;;;;14.30;10.60;;;8.00;99.90;;;;;;5081626;28;20192;-42
2022/02/03 08:08:37;;;;;;;14.83;10.57;;;8.20;99.90;;;;;;5087305;28;20212;-41
2022/02/03 08:11:08;;;;;;;14.97;10.87;;;8.40;99.90;;;;;;5086785;28;20426;-40
2022/02/03 08:13:38;;;;;;;12.47;9.30;;;8.20;99.90;;;;;;5087814;28;20875;-41
2022/02/03 08:16:16;;;;;;;13.27;9.40;;;8.60;99.90;;;;;;5087324;28;20953;-42
2022/02/03 08:18:47;;;;;;;13.63;10.07;;;8.20;99.90;;;;;;5083444;28;20438;-43
2022/02/03 08:21:14;;;;;;;18.77;11.10;;;8.30;99.90;;;;;;5080694;28;20434;-41
2022/02/03 08:31:21;;;;;;;11.20;8.80;;;8.30;99.90;;;;;;5086506;28;20226;-43
2022/02/03 08:33:50;;;;;;;21.57;16.17;;;8.30;99.90;;;;;;5085240;28;20919;-41
2022/02/03 08:36:16;;;;;;;11.80;9.60;;;8.30;99.90;;;;;;5087355;28;20456;-41
2022/02/03 08:41:08;;;;;;;36.70;22.33;;;8.70;99.90;;;;;;5090643;28;20640;-41
2022/02/03 08:43:35;;;;;;;17.07;12.70;;;8.70;99.90;;;;;;5091522;28;20218;-39
2022/02/03 08:46:09;;;;;;;12.40;9.77;;;8.60;99.90;;;;;;5091008;28;20454;-41
2022/02/03 08:48:35;;;;;;;12.20;8.50;;;8.70;99.90;;;;;;5086997;28;20459;-41
2022/02/03 08:51:03;;;;;;;10.90;8.57;;;8.50;99.90;;;;;;5085146;28;20422;-42
2022/02/03 08:53:34;;;;;;;11.73;8.20;;;8.50;99.90;;;;;;5090792;28;20437;-40
2022/02/03 09:29:30;;;;;;;14.07;10.50;;;8.50;99.90;;;;;;5089747;28;20466;-41
2022/02/03 09:41:43;;;;;;;14.93;11.37;;;8.10;99.90;;;;;;5088920;28;20195;-41
2022/02/03 09:55:05;;;;;;;13.83;11.43;;;8.10;99.90;;;;;;5089822;28;20470;-42
2022/02/03 10:00:36;;;;;;;17.03;11.47;;;8.40;99.90;;;;;;5085522;28;20418;-40
2022/02/03 10:03:09;;;;;;;13.13;10.10;;;8.20;99.90;;;;;;5089231;28;20924;-40
2022/02/03 10:05:44;;;;;;;26.73;19.87;;;8.40;99.90;;;;;;5080381;28;20450;-41
2022/02/03 10:08:13;;;;;;;13.70;9.90;;;8.10;99.90;;;;;;5089307;28;20476;-41
2022/02/03 10:10:39;;;;;;;12.27;9.10;;;8.00;99.90;;;;;;5088982;28;20422;-41
2022/02/03 10:13:23;;;;;;;13.00;9.70;;;8.00;99.90;;;;;;5089582;28;20792;-41
2022/02/03 10:16:04;;;;;;;13.27;8.83;;;7.90;99.90;;;;;;5088284;28;21003;-41
2022/02/03 10:18:31;;;;;;;11.40;8.93;;;8.00;99.90;;;;;;5088408;28;20433;-41
2022/02/03 10:21:00;;;;;;;12.37;8.63;;;7.90;99.90;;;;;;5080347;28;20426;-41
2022/02/03 10:23:27;;;;;;;12.40;8.33;;;8.20;99.90;;;;;;5087728;28;20864;-43
2022/02/03 10:26:03;;;;;;;10.90;8.30;;;8.10;99.90;;;;;;5089451;28;20423;-40
2022/02/03 10:28:29;;;;;;;16.20;9.00;;;8.10;99.90;;;;;;5089186;28;20881;-40
2022/02/03 10:31:03;;;;;;;13.00;9.50;;;8.10;99.90;;;;;;5088446;28;20415;-40
2022/02/03 10:33:39;;;;;;;13.73;9.60;;;7.90;99.90;;;;;;5088673;28;20215;-41
2022/02/03 10:36:12;;;;;;;11.67;8.07;;;8.30;99.90;;;;;;5079353;28;20806;-41
2022/02/03 10:39:08;;;;;;;10.83;8.70;;;8.00;99.90;;;;;;5089852;28;20951;-44
2022/02/03 11:04:37;;;;;;;12.43;8.50;;;7.90;99.90;;;;;;5023867;28;21261;-40
2022/02/03 11:09:35;;;;;;;13.47;8.63;;;7.90;99.90;;;;;;5089335;28;20495;-41
2022/02/03 11:12:04;;;;;;;11.57;9.23;;;7.80;99.90;;;;;;5089876;28;20456;-41
2022/02/03 11:14:31;;;;;;;11.87;9.03;;;8.00;99.90;;;;;;5088480;28;20501;-40
2022/02/03 11:16:58;;;;;;;12.33;9.23;;;7.90;99.90;;;;;;5082057;28;21090;-41
2022/02/03 11:19:27;;;;;;;11.63;8.80;;;7.90;99.90;;;;;;5083846;28;20602;-41
2022/02/03 11:22:03;;;;;;;15.00;9.00;;;7.90;99.90;;;;;;5080050;28;20924;-41
2022/02/03 11:24:33;;;;;;;13.20;9.50;;;8.10;99.90;;;;;;5088091;28;20422;-42
2022/02/03 11:51:45;;;;;;;8.00;6.73;;;8.30;99.90;;;;;;5078269;28;20513;-41
2022/02/03 11:54:32;;;;;;;9.40;7.17;;;7.90;99.90;;;;;;5083953;28;20864;-41
2022/02/03 12:11:55;;;;;;;7.57;5.73;;;7.90;99.90;;;;;;5040289;28;20447;-41
2022/02/03 12:14:43;;;;;;;11.73;7.40;;;7.90;99.90;;;;;;5086919;28;20787;-40
2022/02/03 12:17:28;;;;;;;8.00;6.90;;;7.80;99.90;;;;;;5087648;28;20458;-41
2022/02/03 12:19:59;;;;;;;7.23;6.53;;;7.60;99.90;;;;;;5082162;28;20453;-42
2022/02/03 12:22:39;;;;;;;13.50;7.93;;;7.60;99.90;;;;;;5079243;28;20641;-40
2022/02/03 12:25:23;;;;;;;12.33;8.27;;;7.70;99.90;;;;;;5081904;28;20430;-45
2022/02/03 12:30:26;;;;;;;7.50;6.70;;;7.60;99.90;;;;;;5086671;28;20414;-41
2022/02/03 12:38:35;;;;;;;8.03;6.93;;;7.60;99.90;;;;;;5084198;28;20450;-42
2022/02/03 12:41:11;;;;;;;8.30;6.10;;;7.60;99.90;;;;;;5086306;28;20430;-41
2022/02/03 12:43:40;;;;;;;13.10;6.90;;;7.80;99.90;;;;;;5086765;28;21085;-41
2022/02/03 12:46:07;;;;;;;8.27;6.43;;;7.60;99.90;;;;;;5087014;28;20457;-40
2022/02/03 12:48:36;;;;;;;12.10;6.80;;;7.60;99.90;;;;;;5085993;28;20498;-41
2022/02/03 12:51:03;;;;;;;14.70;6.67;;;7.70;99.90;;;;;;5080214;28;20437;-43
2022/02/03 12:53:31;;;;;;;8.43;6.30;;;7.60;99.90;;;;;;5086834;28;20523;-41
2022/02/03 12:55:57;;;;;;;8.30;6.60;;;7.70;99.90;;;;;;5086995;28;20462;-40
2022/02/03 12:58:25;;;;;;;8.57;6.07;;;7.70;99.90;;;;;;5087322;28;20856;-40
2022/02/03 13:00:58;;;;;;;6.97;6.27;;;7.80;99.90;;;;;;5086413;28;20719;-40
2022/02/03 13:03:30;;;;;;;7.90;5.87;;;7.70;99.90;;;;;;5087111;28;20442;-41
2022/02/03 13:06:01;;;;;;;6.60;5.33;;;7.60;99.90;;;;;;5081395;28;20473;-43
2022/02/03 13:08:36;;;;;;;6.93;6.23;;;7.60;99.90;;;;;;5083584;28;20498;-40
2022/02/03 13:11:21;;;;;;;7.30;6.07;;;7.90;99.90;;;;;;5086253;28;20422;-41
2022/02/03 13:16:36;;;;;;;7.37;5.70;;;7.70;99.90;;;;;;5086375;28;20446;-41
2022/02/03 13:26:46;;;;;;;8.20;5.40;;;7.60;99.90;;;;;;5090427;28;20418;-41
2022/02/03 13:29:22;;;;;;;6.63;5.37;;;7.60;99.90;;;;;;5090111;28;20999;-40
2022/02/03 13:31:56;;;;;;;6.33;5.70;;;7.60;99.90;;;;;;5089931;28;20202;-41
2022/02/03 13:34:47;;;;;;;10.00;6.40;;;7.70;99.90;;;;;;5090239;28;20418;-41
2022/02/03 13:37:19;;;;;;;7.83;6.07;;;7.70;99.90;;;;;;5079128;28;20442;-40
2022/02/03 13:40:10;;;;;;;7.53;6.67;;;7.70;99.90;;;;;;5081417;28;20425;-44
2022/02/03 13:42:37;;;;;;;8.60;6.70;;;7.50;99.90;;;;;;5090161;28;20457;-41
2022/02/03 13:45:09;;;;;;;7.00;6.30;;;7.50;99.90;;;;;;5088636;28;20441;-41
2022/02/03 13:47:35;;;;;;;9.50;6.83;;;7.50;99.90;;;;;;5090266;28;20513;-41
2022/02/03 13:50:20;;;;;;;8.90;5.90;;;7.50;99.90;;;;;;5090966;28;20462;-41
2022/02/03 13:52:55;;;;;;;15.53;10.40;;;7.60;99.90;;;;;;5077737;28;20921;-41
2022/02/03 14:15:35;;;;;;;6.90;6.03;;;7.70;99.90;;;;;;5049804;28;20431;-42
2022/02/03 14:18:12;;;;;;;8.77;6.90;;;7.60;99.90;;;;;;5089497;28;20433;-45
2022/02/03 14:20:48;;;;;;;9.83;7.33;;;7.80;99.90;;;;;;5084937;28;20414;-44
2022/02/03 14:28:30;;;;;;;10.00;6.40;;;7.70;99.90;;;;;;5088853;28;20905;-43
2022/02/03 14:31:00;;;;;;;7.53;6.53;;;8.00;99.90;;;;;;5084228;28;20419;-42
2022/02/03 14:33:32;;;;;;;10.93;7.10;;;7.60;99.90;;;;;;5088938;28;20514;-41
2022/02/03 14:36:04;;;;;;;9.50;6.80;;;7.70;99.90;;;;;;5085264;28;20794;-43
2022/02/03 14:38:36;;;;;;;7.87;7.13;;;7.70;99.90;;;;;;5081584;28;20434;-41
2022/02/03 14:41:21;;;;;;;9.20;7.00;;;7.50;99.90;;;;;;5087993;28;20865;-43
2022/02/03 14:43:47;;;;;;;6.83;5.70;;;7.60;99.90;;;;;;5086381;28;20419;-42
2022/02/03 14:46:15;;;;;;;9.30;6.20;;;7.70;99.90;;;;;;5088367;28;20422;-42
2022/02/03 14:48:43;;;;;;;7.30;5.93;;;7.80;99.90;;;;;;5088326;28;20483;-41
2022/02/03 14:51:14;;;;;;;7.90;7.07;;;7.70;99.90;;;;;;5084311;28;20435;-40
2022/02/03 14:53:51;;;;;;;7.40;6.63;;;7.90;99.90;;;;;;5085849;28;20423;-42
2022/02/03 14:59:02;;;;;;;8.87;6.97;;;7.60;99.90;;;;;;5087595;28;20487;-41
2022/02/03 15:01:30;;;;;;;8.10;6.70;;;7.70;99.90;;;;;;5085877;28;20422;-40
2022/02/03 15:03:58;;;;;;;8.57;6.70;;;7.80;99.90;;;;;;5087734;28;20444;-41
2022/02/03 15:06:26;;;;;;;8.23;5.83;;;7.40;99.90;;;;;;5083832;28;20439;-41
2022/02/03 15:09:14;;;;;;;7.40;6.67;;;7.70;99.90;;;;;;5084517;28;20462;-41
2022/02/03 15:11:56;;;;;;;7.20;6.50;;;7.70;99.90;;;;;;5087224;28;20422;-41
2022/02/03 15:14:22;;;;;;;7.97;6.80;;;7.60;99.90;;;;;;5087840;28;20458;-41
2022/02/03 15:16:48;;;;;;;7.60;6.80;;;7.70;99.90;;;;;;5086125;28;20487;-43
2022/02/03 15:19:14;;;;;;;10.17;7.40;;;7.70;99.90;;;;;;5074930;28;20184;-41
2022/02/03 15:21:40;;;;;;;6.87;6.17;;;7.60;99.90;;;;;;5080227;28;20188;-44
2022/02/03 15:24:06;;;;;;;8.30;7.43;;;7.60;99.90;;;;;;5085559;28;20188;-42
2022/02/03 15:26:32;;;;;;;9.33;7.43;;;7.50;99.90;;;;;;5088111;28;20498;-41
2022/02/03 15:28:58;;;;;;;8.63;6.67;;;7.50;99.90;;;;;;5074129;28;21067;-41
2022/02/03 15:31:30;;;;;;;7.77;6.97;;;7.50;99.90;;;;;;5087220;28;20426;-41
2022/02/03 15:34:04;;;;;;;8.70;6.60;;;7.70;99.90;;;;;;5087953;28;20184;-40
2022/02/03 15:36:34;;;;;;;8.93;7.47;;;7.50;99.90;;;;;;5084187;28;20431;-41
2022/02/03 15:39:05;;;;;;;7.60;6.73;;;7.60;99.90;;;;;;5081854;28;20428;-42
2022/02/03 15:41:30;;;;;;;7.70;6.60;;;7.80;99.90;;;;;;5086708;28;20434;-41
2022/02/03 15:43:58;;;;;;;10.20;6.70;;;7.60;99.90;;;;;;5087439;28;20427;-41
2022/02/03 15:46:26;;;;;;;8.50;6.17;;;7.60;99.90;;;;;;5087831;28;20214;-41
2022/02/03 16:18:36;;;;;;;8.77;7.33;;;7.70;99.90;;;;;;5022692;28;20531;-41
2022/02/03 16:21:23;;;;;;;8.10;7.30;;;7.60;99.90;;;;;;5042635;28;20509;-41
2022/02/03 16:26:46;;;;;;;8.17;7.00;;;7.40;99.90;;;;;;5087742;28;20452;-42
2022/02/03 16:51:05;;;;;;;12.40;8.93;;;8.10;99.90;;;;;;5085959;28;20845;-42
2022/02/03 16:53:31;;;;;;;11.90;8.23;;;8.60;99.90;;;;;;5080143;28;20497;-41
2022/02/03 16:55:59;;;;;;;9.00;7.20;;;9.00;99.90;;;;;;5090966;28;20524;-44
2022/02/03 16:58:26;;;;;;;9.43;7.70;;;9.60;99.90;;;;;;5090255;28;20270;-42
2022/02/03 17:00:52;;;;;;;10.30;8.17;;;10.20;99.90;;;;;;5090529;28;20430;-42
2022/02/03 17:03:18;;;;;;;8.07;7.27;;;10.40;99.90;;;;;;5091396;28;20822;-42
2022/02/03 17:05:44;;;;;;;9.60;7.40;;;11.10;99.90;;;;;;5091729;28;20221;-42
2022/02/03 17:08:10;;;;;;;8.70;6.97;;;11.40;99.90;;;;;;5078910;28;20224;-47
2022/02/03 17:10:36;;;;;;;8.23;6.60;;;11.60;99.90;;;;;;5089866;28;20513;-42
2022/02/03 17:13:02;;;;;;;8.20;7.10;;;12.00;99.90;;;;;;5088072;28;20877;-42
2022/02/03 17:15:28;;;;;;;8.10;7.30;;;12.50;99.90;;;;;;5087660;28;20183;-41
2022/02/03 17:17:54;;;;;;;9.70;7.23;;;12.30;99.90;;;;;;5088618;28;20434;-42
2022/02/03 17:20:28;;;;;;;9.57;8.40;;;11.80;99.90;;;;;;5086002;28;20180;-42
2022/02/03 17:22:54;;;;;;;9.07;7.60;;;11.80;99.90;;;;;;5080684;28;20187;-41
2022/02/03 17:25:49;;;;;;;7.27;6.57;;;12.10;99.90;;;;;;5090125;28;20795;-42
2022/02/03 17:28:17;;;;;;;7.60;6.90;;;12.20;99.90;;;;;;5087790;28;20418;-42
2022/02/03 17:30:56;;;;;;;11.93;7.53;;;12.00;99.90;;;;;;5088426;28;20475;-41
2022/02/03 18:08:59;;;;;;;8.70;7.80;;;13.30;99.90;;;;;;5080064;28;20557;-43
2022/02/03 18:11:55;;;;;;;8.70;7.50;;;12.50;99.90;;;;;;5089194;28;20429;-40
2022/02/03 20:08:34;;;;;;;16.03;13.20;;;8.80;99.90;;;;;;5084102;28;20208;-43
2022/02/03 20:11:00;;;;;;;17.47;13.53;;;8.30;99.90;;;;;;5082317;28;20414;-45
2022/02/03 20:13:26;;;;;;;17.63;12.83;;;8.70;99.90;;;;;;5085010;28;20467;-41
2022/02/03 20:15:53;;;;;;;16.63;12.27;;;8.50;99.90;;;;;;5084166;28;20184;-42
2022/02/03 20:18:19;;;;;;;20.37;13.30;;;8.40;99.90;;;;;;5083228;28;20229;-41
2022/02/03 20:20:46;;;;;;;15.90;13.53;;;8.30;99.90;;;;;;5084890;28;20480;-45
2022/02/03 20:23:16;;;;;;;17.90;13.60;;;8.40;99.90;;;;;;5080773;28;20475;-45
2022/02/03 20:25:49;;;;;;;17.67;12.50;;;8.30;99.90;;;;;;5083271;28;20434;-44
2022/02/03 20:28:14;;;;;;;19.77;13.53;;;8.50;99.90;;;;;;5086362;28;20442;-42
2022/02/03 20:30:40;;;;;;;15.87;12.70;;;8.30;99.90;;;;;;5090467;28;20418;-42
2022/02/03 20:33:06;;;;;;;17.20;14.40;;;8.40;99.90;;;;;;5086091;28;20254;-44
2022/02/03 20:35:32;;;;;;;21.10;14.93;;;8.40;99.90;;;;;;5084791;28;20704;-42
2022/02/03 20:37:58;;;;;;;19.40;14.30;;;8.20;99.90;;;;;;5088272;28;20206;-41
2022/02/03 20:40:24;;;;;;;19.40;15.70;;;8.30;99.90;;;;;;5084923;28;20444;-45
2022/02/03 20:42:49;;;;;;;19.80;14.57;;;8.20;99.90;;;;;;5090940;28;20264;-44
2022/02/03 20:45:15;;;;;;;19.57;16.00;;;8.40;99.90;;;;;;5092394;28;20196;-42
2022/02/03 20:47:41;;;;;;;17.03;14.57;;;8.20;99.90;;;;;;5092401;28;20195;-42
2022/02/03 20:50:11;;;;;;;20.13;15.07;;;8.20;99.90;;;;;;5091896;28;20208;-43
2022/02/03 20:52:37;;;;;;;19.60;14.83;;;8.10;99.90;;;;;;5091489;28;20835;-42
2022/02/03 20:55:03;;;;;;;18.30;15.30;;;8.00;99.90;;;;;;5083527;28;20438;-41
2022/02/03 20:57:29;;;;;;;22.03;15.50;;;8.00;99.90;;;;;;5090476;28;20226;-42
2022/02/03 21:02:41;;;;;;;20.00;13.93;;;8.10;99.90;;;;;;5092124;28;20445;-41
2022/02/03 21:05:12;;;;;;;20.93;15.83;;;8.30;99.90;;;;;;5087928;28;20441;-41
2022/02/03 21:07:40;;;;;;;19.53;14.60;;;8.20;99.90;;;;;;5085913;28;20669;-45
2022/02/03 21:10:09;;;;;;;20.27;14.93;;;8.20;99.90;;;;;;5081237;28;20494;-44
2022/02/03 21:12:35;;;;;;;19.73;15.10;;;8.10;99.90;;;;;;5080779;28;20829;-42
2022/02/03 21:15:01;;;;;;;17.90;14.50;;;7.80;99.90;;;;;;5083618;28;20476;-41
2022/02/03 21:17:29;;;;;;;23.40;15.63;;;7.90;99.90;;;;;;5089235;28;20204;-41
2022/02/03 21:20:03;;;;;;;19.60;15.47;;;8.10;99.90;;;;;;5088968;28;20866;-41
2022/02/03 21:22:29;;;;;;;18.57;13.93;;;7.90;99.90;;;;;;5085348;28;20956;-41
2022/02/03 21:25:01;;;;;;;19.40;14.47;;;7.80;99.90;;;;;;5084908;28;20430;-41
2022/02/03 21:27:29;;;;;;;19.90;16.27;;;7.90;99.90;;;;;;5087973;28;20312;-41
2022/02/03 21:29:55;;;;;;;18.07;13.77;;;7.90;99.90;;;;;;5087880;28;20493;-41
2022/02/03 21:32:21;;;;;;;19.73;15.37;;;7.90;99.90;;;;;;5089731;28;20523;-41
2022/02/03 21:34:51;;;;;;;20.10;15.40;;;8.10;99.90;;;;;;5089979;28;20713;-43
2022/02/03 21:37:17;;;;;;;23.10;16.00;;;8.20;99.90;;;;;;5089931;28;20419;-43
2022/02/03 21:39:43;;;;;;;18.00;14.40;;;7.80;99.90;;;;;;5077304;28;20775;-41
2022/02/03 21:42:09;;;;;;;19.27;14.60;;;7.90;99.90;;;;;;5088938;28;20204;-43
2022/02/03 21:44:35;;;;;;;20.27;15.47;;;8.30;99.90;;;;;;5089868;28;20199;-43
2022/02/03 21:47:01;;;;;;;22.40;17.30;;;8.10;99.90;;;;;;5088339;28;20929;-41
2022/02/03 21:49:27;;;;;;;22.97;14.70;;;8.40;99.90;;;;;;5089488;28;20307;-41
2022/02/03 21:51:55;;;;;;;19.90;15.60;;;8.20;99.90;;;;;;5088819;28;20513;-41
2022/02/03 21:54:21;;;;;;;19.40;15.47;;;8.20;99.90;;;;;;5082205;28;20701;-42
2022/02/03 21:56:48;;;;;;;19.70;15.23;;;8.30;99.90;;;;;;5081544;28;20446;-41
2022/02/03 21:59:15;;;;;;;19.57;15.00;;;7.80;99.90;;;;;;5089245;28;20426;-41
2022/02/03 22:01:43;;;;;;;19.97;14.97;;;7.90;99.90;;;;;;5089167;28;20461;-41
2022/02/03 22:04:09;;;;;;;18.80;14.80;;;7.80;99.90;;;;;;5088881;28;20866;-41
2022/02/03 22:06:35;;;;;;;19.03;14.63;;;7.90;99.90;;;;;;5088814;28;20435;-42
2022/02/03 22:09:01;;;;;;;21.37;14.77;;;7.90;99.90;;;;;;5081495;28;20709;-41
2022/02/03 22:11:26;;;;;;;19.70;14.77;;;7.70;99.90;;;;;;5083987;28;20415;-41
2022/02/03 22:13:52;;;;;;;18.80;14.80;;;7.70;99.90;;;;;;5088854;28;20185;-42
2022/02/03 22:16:23;;;;;;;21.10;15.50;;;7.70;99.90;;;;;;5089222;28;20587;-41
2022/02/03 22:18:49;;;;;;;20.83;15.40;;;7.90;99.90;;;;;;5088829;28;20321;-42
2022/02/03 22:26:50;;;;;;;19.07;14.63;;;7.90;99.90;;;;;;5082079;28;20517;-42
2022/02/03 22:43:18;;;;;;;19.33;14.23;;;7.60;99.90;;;;;;5086648;28;20565;-41
2022/02/03 22:45:58;;;;;;;20.47;14.63;;;7.80;99.90;;;;;;5089132;28;21183;-41
2022/02/03 22:48:26;;;;;;;22.83;15.93;;;7.50;99.90;;;;;;5088807;28;20822;-41
2022/02/03 22:51:03;;;;;;;22.60;16.07;;;7.40;99.90;;;;;;5087673;28;20422;-41
2022/02/03 22:53:34;;;;;;;20.03;15.17;;;7.50;99.90;;;;;;5089009;28;20429;-41
2022/02/03 22:56:06;;;;;;;22.27;15.93;;;7.60;99.90;;;;;;5079886;28;20542;-43
2022/02/03 23:01:11;;;;;;;22.13;15.80;;;7.60;99.90;;;;;;5087569;28;20459;-41
2022/02/03 23:03:40;;;;;;;21.50;16.00;;;7.70;99.90;;;;;;5088660;28;20430;-41
2022/02/03 23:06:06;;;;;;;22.37;16.93;;;7.70;99.90;;;;;;5088382;28;20422;-41
2022/02/03 23:21:46;;;;;;;25.77;18.60;;;7.50;99.90;;;;;;5086675;28;21055;-41
2022/02/03 23:24:12;;;;;;;26.37;18.33;;;7.60;99.90;;;;;;5085863;28;20249;-41
2022/02/03 23:26:37;;;;;;;26.90;17.47;;;7.40;99.90;;;;;;5080763;28;20427;-43
2022/02/03 23:29:11;;;;;;;24.80;17.50;;;7.40;99.90;;;;;;5088264;28;20515;-41
2022/02/03 23:32:06;;;;;;;22.50;15.93;;;7.60;99.90;;;;;;5087507;28;20199;-41
2022/02/03 23:34:25;;;;;;;23.93;16.33;;;7.60;99.90;;;;;;5085590;28;20521;-41
2022/02/03 23:36:51;;;;;;;19.83;16.00;;;7.70;99.90;;;;;;5087919;28;20534;-42
2022/02/03 23:39:24;;;;;;;22.27;16.40;;;7.70;99.90;;;;;;5085630;28;20213;-41
